Portada
METAR-TAF:

METAR-TAF

Aeropuertos :

Aeropuerto de Calvi Sainte-Catherine

Calvi, Francia

latitud: 42-32N, longitud: 008-48E, altitud: 64 m

Observación

El informe se hizo hace 19 minutos, a las 12:30 UTC
Viento 17 kt del norte
Temperatura 20°C
Humedad 32%
Presión 1018 hPa
Visibilidad 10 km o más
sin nubes por debajo de 1500 m y sin presencia de cumulonimbus.

METAR: LFKC 041230Z AUTO 36017KT CAVOK 20/03 Q1018 TEMPO 02015G25KT

Hora: 14:49 (12:49 UTC)

Pronóstico

El informe se hizo hace 4 horas y 49 minutos, a las 08:00 UTC
Pronóstico válido del 04 a las 09 UTC al 05 a las 09 UTC
Viento 12 kt del norte
Visibilidad 10 km o más
sin nubes por debajo de 1500 m y sin presencia de cumulonimbus.
Temporalmente
del 04 a las 11 UTC al 04 a las 15 UTC
Viento 15 kt del norte-noreste con ráfagas de 25 kt

TAF: LFKC 040800Z 0409/0509 36012KT CAVOK TX19/0411Z TN07/0503Z TEMPO 0411/0415 02015G25KT

Observaciones y pronósticos meteorológicos de más de 4000 aeropuertos (mensajes METAR y TAF).

Los puntos amarillos y rojos representan las estaciones disponibles.

Ponga el ratón en el punto deseado para ver el nombre de la estación.

Haga clic para ver las observaciones y los pronósticos meteorológicos.

Para cambiar el mapa : haga clic en los botones verdes con una cruz de color negro para hacer un zoom, en el botón verde con un guión para alejar o en las flechas verdes para mapas adyacentes.


METAR-TAF: